sensor_id;sensor_type;location;lat;lon;timestamp;temperature;humidity
10660;DHT22;5378;53.206;13.316;2022-11-15T00:02:01;7.30;99.90
10660;DHT22;5378;53.206;13.316;2022-11-15T00:05:08;7.20;99.90
10660;DHT22;5378;53.206;13.316;2022-11-15T00:08:15;7.10;99.90
10660;DHT22;5378;53.206;13.316;2022-11-15T00:11:21;7.10;99.90
10660;DHT22;5378;53.206;13.316;2022-11-15T00:14:26;7.10;99.90
10660;DHT22;5378;53.206;13.316;2022-11-15T00:17:32;7.10;99.90
10660;DHT22;5378;53.206;13.316;2022-11-15T00:20:37;7.00;99.90
10660;DHT22;5378;53.206;13.316;2022-11-15T00:23:44;6.90;99.90
10660;DHT22;5378;53.206;13.316;2022-11-15T00:26:49;6.80;99.90
10660;DHT22;5378;53.206;13.316;2022-11-15T00:29:55;6.70;99.90
10660;DHT22;5378;53.206;13.316;2022-11-15T00:33:02;6.70;99.90
10660;DHT22;5378;53.206;13.316;2022-11-15T00:36:09;6.70;99.90
10660;DHT22;5378;53.206;13.316;2022-11-15T00:39:16;6.80;99.90
10660;DHT22;5378;53.206;13.316;2022-11-15T00:42:21;6.70;99.90
10660;DHT22;5378;53.206;13.316;2022-11-15T00:45:27;6.70;99.90
10660;DHT22;5378;53.206;13.316;2022-11-15T00:48:32;6.80;99.90
10660;DHT22;5378;53.206;13.316;2022-11-15T00:51:38;6.70;99.90
10660;DHT22;5378;53.206;13.316;2022-11-15T00:54:45;6.60;99.90
10660;DHT22;5378;53.206;13.316;2022-11-15T00:57:50;6.70;99.90
10660;DHT22;5378;53.206;13.316;2022-11-15T01:00:56;6.60;99.90
10660;DHT22;5378;53.206;13.316;2022-11-15T01:04:01;6.60;99.90
10660;DHT22;5378;53.206;13.316;2022-11-15T01:07:07;6.60;99.90
10660;DHT22;5378;53.206;13.316;2022-11-15T01:10:14;6.60;99.90
10660;DHT22;5378;53.206;13.316;2022-11-15T01:13:20;6.50;99.90
10660;DHT22;5378;53.206;13.316;2022-11-15T01:16:25;6.50;99.90
10660;DHT22;5378;53.206;13.316;2022-11-15T01:19:31;6.60;99.90
10660;DHT22;5378;53.206;13.316;2022-11-15T01:22:36;6.60;99.90
10660;DHT22;5378;53.206;13.316;2022-11-15T01:25:43;6.50;99.90
10660;DHT22;5378;53.206;13.316;2022-11-15T01:28:49;6.50;99.90
10660;DHT22;5378;53.206;13.316;2022-11-15T01:31:54;6.60;99.90
10660;DHT22;5378;53.206;13.316;2022-11-15T01:35:00;6.60;99.90
10660;DHT22;5378;53.206;13.316;2022-11-15T01:38:06;6.50;99.90
10660;DHT22;5378;53.206;13.316;2022-11-15T01:41:21;6.70;99.90
10660;DHT22;5378;53.206;13.316;2022-11-15T01:44:41;6.70;99.90
10660;DHT22;5378;53.206;13.316;2022-11-15T01:47:51;6.70;99.90
10660;DHT22;5378;53.206;13.316;2022-11-15T01:50:57;6.70;99.90
10660;DHT22;5378;53.206;13.316;2022-11-15T01:54:06;6.70;99.90
10660;DHT22;5378;53.206;13.316;2022-11-15T01:57:14;6.70;99.90
10660;DHT22;5378;53.206;13.316;2022-11-15T02:00:20;6.80;99.90
10660;DHT22;5378;53.206;13.316;2022-11-15T02:03:33;6.80;99.90
10660;DHT22;5378;53.206;13.316;2022-11-15T02:06:41;6.80;99.90
10660;DHT22;5378;53.206;13.316;2022-11-15T02:09:49;6.80;99.90
10660;DHT22;5378;53.206;13.316;2022-11-15T02:12:56;6.80;99.90
10660;DHT22;5378;53.206;13.316;2022-11-15T02:16:10;6.70;99.90
10660;DHT22;5378;53.206;13.316;2022-11-15T02:19:44;6.60;99.90
10660;DHT22;5378;53.206;13.316;2022-11-15T02:23:11;6.60;99.90
10660;DHT22;5378;53.206;13.316;2022-11-15T02:26:43;6.50;99.90
10660;DHT22;5378;53.206;13.316;2022-11-15T02:30:04;6.50;99.90
10660;DHT22;5378;53.206;13.316;2022-11-15T02:33:25;6.60;99.90
10660;DHT22;5378;53.206;13.316;2022-11-15T02:36:37;6.50;99.90
10660;DHT22;5378;53.206;13.316;2022-11-15T02:39:49;6.50;99.90
10660;DHT22;5378;53.206;13.316;2022-11-15T02:43:00;6.50;99.90
10660;DHT22;5378;53.206;13.316;2022-11-15T02:46:31;6.50;99.90
10660;DHT22;5378;53.206;13.316;2022-11-15T02:49:58;6.50;99.90
10660;DHT22;5378;53.206;13.316;2022-11-15T02:53:05;6.40;99.90
10660;DHT22;5378;53.206;13.316;2022-11-15T02:56:12;6.50;99.90
10660;DHT22;5378;53.206;13.316;2022-11-15T02:59:30;6.30;99.90
10660;DHT22;5378;53.206;13.316;2022-11-15T03:02:47;6.30;99.90
10660;DHT22;5378;53.206;13.316;2022-11-15T03:06:06;6.40;99.90
10660;DHT22;5378;53.206;13.316;2022-11-15T03:09:24;6.30;99.90
10660;DHT22;5378;53.206;13.316;2022-11-15T03:12:40;6.30;99.90
10660;DHT22;5378;53.206;13.316;2022-11-15T03:15:55;6.30;99.90
10660;DHT22;5378;53.206;13.316;2022-11-15T03:19:06;6.40;99.90
10660;DHT22;5378;53.206;13.316;2022-11-15T03:22:16;6.30;99.90
10660;DHT22;5378;53.206;13.316;2022-11-15T03:25:24;6.30;99.90
10660;DHT22;5378;53.206;13.316;2022-11-15T03:28:36;6.30;99.90
10660;DHT22;5378;53.206;13.316;2022-11-15T03:31:45;6.30;99.90
10660;DHT22;5378;53.206;13.316;2022-11-15T03:34:57;6.30;99.90
10660;DHT22;5378;53.206;13.316;2022-11-15T03:38:08;6.30;99.90
10660;DHT22;5378;53.206;13.316;2022-11-15T03:41:22;6.20;99.90
10660;DHT22;5378;53.206;13.316;2022-11-15T03:44:36;6.30;99.90
10660;DHT22;5378;53.206;13.316;2022-11-15T03:47:49;6.30;99.90
10660;DHT22;5378;53.206;13.316;2022-11-15T03:50:57;6.20;99.90
10660;DHT22;5378;53.206;13.316;2022-11-15T03:54:04;6.30;99.90
10660;DHT22;5378;53.206;13.316;2022-11-15T03:57:10;6.30;99.90
10660;DHT22;5378;53.206;13.316;2022-11-15T04:00:16;6.20;99.90
10660;DHT22;5378;53.206;13.316;2022-11-15T04:03:23;6.20;99.90
10660;DHT22;5378;53.206;13.316;2022-11-15T04:06:28;6.20;99.90
10660;DHT22;5378;53.206;13.316;2022-11-15T04:09:35;6.20;99.90
10660;DHT22;5378;53.206;13.316;2022-11-15T04:13:02;6.20;99.90
10660;DHT22;5378;53.206;13.316;2022-11-15T04:16:08;6.20;99.90
10660;DHT22;5378;53.206;13.316;2022-11-15T04:19:13;6.10;99.90
10660;DHT22;5378;53.206;13.316;2022-11-15T04:22:37;6.10;99.90
10660;DHT22;5378;53.206;13.316;2022-11-15T04:26:04;6.00;99.90
10660;DHT22;5378;53.206;13.316;2022-11-15T04:29:11;5.90;99.90
10660;DHT22;5378;53.206;13.316;2022-11-15T04:32:35;6.00;99.90
10660;DHT22;5378;53.206;13.316;2022-11-15T04:35:41;6.00;99.90
10660;DHT22;5378;53.206;13.316;2022-11-15T04:38:47;6.00;99.90
10660;DHT22;5378;53.206;13.316;2022-11-15T04:41:53;5.90;99.90
10660;DHT22;5378;53.206;13.316;2022-11-15T04:44:59;5.90;99.90
10660;DHT22;5378;53.206;13.316;2022-11-15T04:48:05;5.90;99.90
10660;DHT22;5378;53.206;13.316;2022-11-15T04:51:10;5.80;99.90
10660;DHT22;5378;53.206;13.316;2022-11-15T04:54:16;5.60;99.90
10660;DHT22;5378;53.206;13.316;2022-11-15T04:57:23;5.70;99.90
10660;DHT22;5378;53.206;13.316;2022-11-15T05:00:29;5.70;99.90
10660;DHT22;5378;53.206;13.316;2022-11-15T05:03:35;5.70;99.90
10660;DHT22;5378;53.206;13.316;2022-11-15T05:06:58;5.70;99.90
10660;DHT22;5378;53.206;13.316;2022-11-15T05:10:05;5.50;99.90
10660;DHT22;5378;53.206;13.316;2022-11-15T05:13:12;5.40;99.90
10660;DHT22;5378;53.206;13.316;2022-11-15T05:16:17;5.40;99.90
10660;DHT22;5378;53.206;13.316;2022-11-15T05:19:23;5.50;99.90
10660;DHT22;5378;53.206;13.316;2022-11-15T05:22:29;5.50;99.90
10660;DHT22;5378;53.206;13.316;2022-11-15T05:25:36;5.40;99.90
10660;DHT22;5378;53.206;13.316;2022-11-15T05:28:43;5.40;99.90
10660;DHT22;5378;53.206;13.316;2022-11-15T05:31:48;5.30;99.90
10660;DHT22;5378;53.206;13.316;2022-11-15T05:34:54;5.40;99.90
10660;DHT22;5378;53.206;13.316;2022-11-15T05:38:00;5.20;99.90
10660;DHT22;5378;53.206;13.316;2022-11-15T05:41:06;5.20;99.90
10660;DHT22;5378;53.206;13.316;2022-11-15T05:44:18;5.30;99.90
10660;DHT22;5378;53.206;13.316;2022-11-15T05:47:27;5.20;99.90
10660;DHT22;5378;53.206;13.316;2022-11-15T05:50:35;5.20;99.90
10660;DHT22;5378;53.206;13.316;2022-11-15T05:53:42;5.20;99.90
10660;DHT22;5378;53.206;13.316;2022-11-15T05:56:48;5.20;99.90
10660;DHT22;5378;53.206;13.316;2022-11-15T05:59:55;5.10;99.90
10660;DHT22;5378;53.206;13.316;2022-11-15T06:03:01;5.20;99.90
10660;DHT22;5378;53.206;13.316;2022-11-15T06:06:07;5.30;99.90
10660;DHT22;5378;53.206;13.316;2022-11-15T06:09:15;5.30;99.90
10660;DHT22;5378;53.206;13.316;2022-11-15T06:12:21;5.30;99.90
10660;DHT22;5378;53.206;13.316;2022-11-15T06:15:28;5.40;99.90
10660;DHT22;5378;53.206;13.316;2022-11-15T06:18:35;5.40;99.90
10660;DHT22;5378;53.206;13.316;2022-11-15T06:21:40;5.50;99.90
10660;DHT22;5378;53.206;13.316;2022-11-15T06:24:46;5.50;99.90
10660;DHT22;5378;53.206;13.316;2022-11-15T06:27:52;5.50;99.90
10660;DHT22;5378;53.206;13.316;2022-11-15T06:31:04;5.50;99.90
10660;DHT22;5378;53.206;13.316;2022-11-15T06:34:10;5.60;99.90
10660;DHT22;5378;53.206;13.316;2022-11-15T06:37:15;5.70;99.90
10660;DHT22;5378;53.206;13.316;2022-11-15T06:40:21;5.70;99.90
10660;DHT22;5378;53.206;13.316;2022-11-15T06:43:26;5.70;99.90
10660;DHT22;5378;53.206;13.316;2022-11-15T06:46:33;5.60;99.90
10660;DHT22;5378;53.206;13.316;2022-11-15T06:49:39;5.60;99.90
10660;DHT22;5378;53.206;13.316;2022-11-15T06:52:44;5.70;99.90
10660;DHT22;5378;53.206;13.316;2022-11-15T06:55:50;5.80;99.90
10660;DHT22;5378;53.206;13.316;2022-11-15T06:58:58;5.80;99.90
10660;DHT22;5378;53.206;13.316;2022-11-15T07:02:05;5.90;99.90
10660;DHT22;5378;53.206;13.316;2022-11-15T07:05:12;5.80;99.90
10660;DHT22;5378;53.206;13.316;2022-11-15T07:08:18;5.80;99.90
10660;DHT22;5378;53.206;13.316;2022-11-15T07:11:24;5.90;99.90
10660;DHT22;5378;53.206;13.316;2022-11-15T07:14:30;5.80;99.90
10660;DHT22;5378;53.206;13.316;2022-11-15T07:17:37;6.00;99.90
10660;DHT22;5378;53.206;13.316;2022-11-15T07:20:42;6.00;99.90
10660;DHT22;5378;53.206;13.316;2022-11-15T07:23:48;6.10;99.90
10660;DHT22;5378;53.206;13.316;2022-11-15T07:26:53;6.00;99.90
10660;DHT22;5378;53.206;13.316;2022-11-15T07:29:59;6.10;99.90
10660;DHT22;5378;53.206;13.316;2022-11-15T07:33:05;6.10;99.90
10660;DHT22;5378;53.206;13.316;2022-11-15T07:36:11;6.10;99.90
10660;DHT22;5378;53.206;13.316;2022-11-15T07:39:17;6.20;99.90
10660;DHT22;5378;53.206;13.316;2022-11-15T07:42:22;6.20;99.90
10660;DHT22;5378;53.206;13.316;2022-11-15T07:45:46;6.20;99.90
10660;DHT22;5378;53.206;13.316;2022-11-15T07:48:53;6.10;99.90
10660;DHT22;5378;53.206;13.316;2022-11-15T07:51:58;6.20;99.90
10660;DHT22;5378;53.206;13.316;2022-11-15T07:55:05;6.20;99.90
10660;DHT22;5378;53.206;13.316;2022-11-15T07:58:11;6.30;99.90
10660;DHT22;5378;53.206;13.316;2022-11-15T08:01:17;6.50;99.90
10660;DHT22;5378;53.206;13.316;2022-11-15T08:04:24;6.60;99.90
10660;DHT22;5378;53.206;13.316;2022-11-15T08:07:30;6.60;99.90
10660;DHT22;5378;53.206;13.316;2022-11-15T08:10:36;6.70;99.90
10660;DHT22;5378;53.206;13.316;2022-11-15T08:13:43;6.70;99.90
10660;DHT22;5378;53.206;13.316;2022-11-15T08:16:49;6.70;99.90
10660;DHT22;5378;53.206;13.316;2022-11-15T08:19:56;6.70;99.90
10660;DHT22;5378;53.206;13.316;2022-11-15T08:23:03;6.70;99.90
10660;DHT22;5378;53.206;13.316;2022-11-15T08:26:09;6.60;99.90
10660;DHT22;5378;53.206;13.316;2022-11-15T08:29:15;6.50;99.90
10660;DHT22;5378;53.206;13.316;2022-11-15T08:32:20;6.60;99.90
10660;DHT22;5378;53.206;13.316;2022-11-15T08:35:28;6.80;99.90
10660;DHT22;5378;53.206;13.316;2022-11-15T08:38:34;6.90;99.90
10660;DHT22;5378;53.206;13.316;2022-11-15T08:41:39;6.80;99.90
10660;DHT22;5378;53.206;13.316;2022-11-15T08:44:45;6.80;99.90
10660;DHT22;5378;53.206;13.316;2022-11-15T08:47:50;6.90;99.90
10660;DHT22;5378;53.206;13.316;2022-11-15T08:50:58;7.10;99.90
10660;DHT22;5378;53.206;13.316;2022-11-15T08:54:04;7.10;99.90
10660;DHT22;5378;53.206;13.316;2022-11-15T08:57:10;6.90;99.90
10660;DHT22;5378;53.206;13.316;2022-11-15T09:00:16;6.90;99.90
10660;DHT22;5378;53.206;13.316;2022-11-15T09:03:24;6.90;99.90
10660;DHT22;5378;53.206;13.316;2022-11-15T09:06:32;6.90;99.90
10660;DHT22;5378;53.206;13.316;2022-11-15T09:09:38;7.10;99.90
10660;DHT22;5378;53.206;13.316;2022-11-15T09:12:43;7.10;99.90
10660;DHT22;5378;53.206;13.316;2022-11-15T09:15:52;7.10;99.90
10660;DHT22;5378;53.206;13.316;2022-11-15T09:18:58;7.10;99.90
10660;DHT22;5378;53.206;13.316;2022-11-15T09:22:07;7.20;99.90
10660;DHT22;5378;53.206;13.316;2022-11-15T09:25:13;7.10;99.90
10660;DHT22;5378;53.206;13.316;2022-11-15T09:28:18;7.20;99.90
10660;DHT22;5378;53.206;13.316;2022-11-15T09:31:24;7.20;99.90
10660;DHT22;5378;53.206;13.316;2022-11-15T09:34:30;7.30;99.90
10660;DHT22;5378;53.206;13.316;2022-11-15T09:37:37;7.30;99.90
10660;DHT22;5378;53.206;13.316;2022-11-15T09:40:43;7.30;99.90
10660;DHT22;5378;53.206;13.316;2022-11-15T09:43:55;7.30;99.90
10660;DHT22;5378;53.206;13.316;2022-11-15T09:47:28;7.30;99.90
10660;DHT22;5378;53.206;13.316;2022-11-15T09:50:41;7.30;99.90
10660;DHT22;5378;53.206;13.316;2022-11-15T09:53:34;7.30;99.90
10660;DHT22;5378;53.206;13.316;2022-11-15T09:56:44;7.30;99.90
10660;DHT22;5378;53.206;13.316;2022-11-15T09:59:45;7.40;99.90
10660;DHT22;5378;53.206;13.316;2022-11-15T10:02:57;7.30;99.90
10660;DHT22;5378;53.206;13.316;2022-11-15T10:05:47;7.40;99.90
10660;DHT22;5378;53.206;13.316;2022-11-15T10:08:47;7.40;99.90
10660;DHT22;5378;53.206;13.316;2022-11-15T10:11:37;7.30;99.90
10660;DHT22;5378;53.206;13.316;2022-11-15T10:14:27;7.40;99.90
10660;DHT22;5378;53.206;13.316;2022-11-15T10:17:29;7.40;99.90
10660;DHT22;5378;53.206;13.316;2022-11-15T10:20:22;7.40;99.90
10660;DHT22;5378;53.206;13.316;2022-11-15T10:23:11;7.50;99.90
10660;DHT22;5378;53.206;13.316;2022-11-15T10:26:01;7.60;99.90
10660;DHT22;5378;53.206;13.316;2022-11-15T10:28:51;7.70;99.90
10660;DHT22;5378;53.206;13.316;2022-11-15T10:31:39;7.80;99.90
10660;DHT22;5378;53.206;13.316;2022-11-15T10:34:27;7.90;99.90
10660;DHT22;5378;53.206;13.316;2022-11-15T10:37:14;8.00;99.90
10660;DHT22;5378;53.206;13.316;2022-11-15T10:40:06;8.10;99.90
10660;DHT22;5378;53.206;13.316;2022-11-15T10:43:06;8.20;99.90
10660;DHT22;5378;53.206;13.316;2022-11-15T10:46:16;8.10;99.90
10660;DHT22;5378;53.206;13.316;2022-11-15T10:49:25;8.10;99.90
10660;DHT22;5378;53.206;13.316;2022-11-15T10:52:18;8.10;99.90
10660;DHT22;5378;53.206;13.316;2022-11-15T10:55:23;8.10;99.90
10660;DHT22;5378;53.206;13.316;2022-11-15T10:58:25;8.00;99.90
10660;DHT22;5378;53.206;13.316;2022-11-15T11:01:16;8.10;99.90
10660;DHT22;5378;53.206;13.316;2022-11-15T11:04:05;8.10;99.90
10660;DHT22;5378;53.206;13.316;2022-11-15T11:06:54;8.10;99.90
10660;DHT22;5378;53.206;13.316;2022-11-15T11:09:42;8.10;99.90
10660;DHT22;5378;53.206;13.316;2022-11-15T11:12:31;8.20;99.90
10660;DHT22;5378;53.206;13.316;2022-11-15T11:15:19;8.10;99.90
10660;DHT22;5378;53.206;13.316;2022-11-15T11:18:10;8.20;99.90
10660;DHT22;5378;53.206;13.316;2022-11-15T11:21:04;8.20;99.90
10660;DHT22;5378;53.206;13.316;2022-11-15T11:23:58;8.30;99.90
10660;DHT22;5378;53.206;13.316;2022-11-15T11:26:54;8.30;99.90
10660;DHT22;5378;53.206;13.316;2022-11-15T11:30:01;8.30;99.90
10660;DHT22;5378;53.206;13.316;2022-11-15T11:33:05;8.40;99.90
10660;DHT22;5378;53.206;13.316;2022-11-15T11:36:01;8.40;99.90
10660;DHT22;5378;53.206;13.316;2022-11-15T11:38:58;8.50;99.90
10660;DHT22;5378;53.206;13.316;2022-11-15T11:41:55;8.50;99.90
10660;DHT22;5378;53.206;13.316;2022-11-15T11:44:48;8.60;99.90
10660;DHT22;5378;53.206;13.316;2022-11-15T11:47:39;8.70;99.90
10660;DHT22;5378;53.206;13.316;2022-11-15T11:50:28;8.70;99.90
10660;DHT22;5378;53.206;13.316;2022-11-15T11:53:26;8.70;99.90
10660;DHT22;5378;53.206;13.316;2022-11-15T11:56:22;8.80;99.90
10660;DHT22;5378;53.206;13.316;2022-11-15T11:59:13;8.90;99.90
10660;DHT22;5378;53.206;13.316;2022-11-15T12:02:12;9.00;99.90
10660;DHT22;5378;53.206;13.316;2022-11-15T12:05:08;9.20;99.90
10660;DHT22;5378;53.206;13.316;2022-11-15T12:08:15;9.30;99.90
10660;DHT22;5378;53.206;13.316;2022-11-15T12:11:10;9.30;99.90
10660;DHT22;5378;53.206;13.316;2022-11-15T12:14:01;9.30;99.90
10660;DHT22;5378;53.206;13.316;2022-11-15T12:16:49;9.40;99.90
10660;DHT22;5378;53.206;13.316;2022-11-15T12:19:36;9.40;99.90
10660;DHT22;5378;53.206;13.316;2022-11-15T12:22:32;9.40;99.90
10660;DHT22;5378;53.206;13.316;2022-11-15T12:25:27;9.40;99.90
10660;DHT22;5378;53.206;13.316;2022-11-15T12:28:21;9.40;99.90
10660;DHT22;5378;53.206;13.316;2022-11-15T12:31:14;9.40;99.90
10660;DHT22;5378;53.206;13.316;2022-11-15T12:34:04;9.40;99.90
10660;DHT22;5378;53.206;13.316;2022-11-15T12:36:59;9.40;99.90
10660;DHT22;5378;53.206;13.316;2022-11-15T12:40:21;9.30;99.90
10660;DHT22;5378;53.206;13.316;2022-11-15T12:43:36;9.30;99.90
10660;DHT22;5378;53.206;13.316;2022-11-15T12:46:59;9.30;99.90
10660;DHT22;5378;53.206;13.316;2022-11-15T12:49:46;9.20;99.90
10660;DHT22;5378;53.206;13.316;2022-11-15T12:52:33;9.20;99.90
10660;DHT22;5378;53.206;13.316;2022-11-15T12:55:31;9.10;99.90
10660;DHT22;5378;53.206;13.316;2022-11-15T12:58:28;9.10;99.90
10660;DHT22;5378;53.206;13.316;2022-11-15T13:04:42;8.90;99.90
10660;DHT22;5378;53.206;13.316;2022-11-15T13:07:56;8.80;99.90
10660;DHT22;5378;53.206;13.316;2022-11-15T13:10:43;8.70;99.90
10660;DHT22;5378;53.206;13.316;2022-11-15T13:13:43;8.60;99.90
10660;DHT22;5378;53.206;13.316;2022-11-15T13:16:30;8.50;99.90
10660;DHT22;5378;53.206;13.316;2022-11-15T13:19:19;8.30;99.90
10660;DHT22;5378;53.206;13.316;2022-11-15T13:22:10;8.20;99.90
10660;DHT22;5378;53.206;13.316;2022-11-15T13:25:16;8.30;99.90
10660;DHT22;5378;53.206;13.316;2022-11-15T13:28:11;8.30;99.90
10660;DHT22;5378;53.206;13.316;2022-11-15T13:31:00;8.10;99.90
10660;DHT22;5378;53.206;13.316;2022-11-15T13:33:47;8.10;99.90
10660;DHT22;5378;53.206;13.316;2022-11-15T13:36:34;8.00;99.90
10660;DHT22;5378;53.206;13.316;2022-11-15T13:39:30;7.90;99.90
10660;DHT22;5378;53.206;13.316;2022-11-15T13:42:19;7.80;99.90
10660;DHT22;5378;53.206;13.316;2022-11-15T13:45:13;7.90;99.90
10660;DHT22;5378;53.206;13.316;2022-11-15T13:48:03;7.70;99.90
10660;DHT22;5378;53.206;13.316;2022-11-15T13:50:52;7.70;99.90
10660;DHT22;5378;53.206;13.316;2022-11-15T13:53:41;7.70;99.90
10660;DHT22;5378;53.206;13.316;2022-11-15T13:56:34;7.60;99.90
10660;DHT22;5378;53.206;13.316;2022-11-15T13:59:24;7.60;99.90
10660;DHT22;5378;53.206;13.316;2022-11-15T14:02:13;7.70;99.90
10660;DHT22;5378;53.206;13.316;2022-11-15T14:05:05;7.80;99.90
10660;DHT22;5378;53.206;13.316;2022-11-15T14:08:02;7.90;99.90
10660;DHT22;5378;53.206;13.316;2022-11-15T14:11:06;7.90;99.90
10660;DHT22;5378;53.206;13.316;2022-11-15T14:14:08;7.80;99.90
10660;DHT22;5378;53.206;13.316;2022-11-15T14:16:59;7.80;99.90
10660;DHT22;5378;53.206;13.316;2022-11-15T14:19:46;7.60;99.90
10660;DHT22;5378;53.206;13.316;2022-11-15T14:22:34;7.70;99.90
10660;DHT22;5378;53.206;13.316;2022-11-15T14:25:23;7.70;99.90
10660;DHT22;5378;53.206;13.316;2022-11-15T14:28:29;7.80;99.90
10660;DHT22;5378;53.206;13.316;2022-11-15T14:31:18;7.80;99.90
10660;DHT22;5378;53.206;13.316;2022-11-15T14:34:08;7.80;99.90
10660;DHT22;5378;53.206;13.316;2022-11-15T14:36:56;7.60;99.90
10660;DHT22;5378;53.206;13.316;2022-11-15T14:39:43;7.70;99.90
10660;DHT22;5378;53.206;13.316;2022-11-15T14:42:30;7.80;99.90
10660;DHT22;5378;53.206;13.316;2022-11-15T14:45:18;7.80;99.90
10660;DHT22;5378;53.206;13.316;2022-11-15T14:48:07;7.80;99.90
10660;DHT22;5378;53.206;13.316;2022-11-15T14:50:54;7.70;99.90
10660;DHT22;5378;53.206;13.316;2022-11-15T14:53:42;7.70;99.90
10660;DHT22;5378;53.206;13.316;2022-11-15T14:56:29;7.60;99.90
10660;DHT22;5378;53.206;13.316;2022-11-15T14:59:16;7.60;99.90
10660;DHT22;5378;53.206;13.316;2022-11-15T15:02:09;7.50;99.90
10660;DHT22;5378;53.206;13.316;2022-11-15T15:05:00;7.60;99.90
10660;DHT22;5378;53.206;13.316;2022-11-15T15:07:49;7.50;99.90
10660;DHT22;5378;53.206;13.316;2022-11-15T15:10:38;7.40;99.90
10660;DHT22;5378;53.206;13.316;2022-11-15T15:13:27;7.50;99.90
10660;DHT22;5378;53.206;13.316;2022-11-15T15:16:16;7.50;99.90
10660;DHT22;5378;53.206;13.316;2022-11-15T15:19:03;7.30;99.90
10660;DHT22;5378;53.206;13.316;2022-11-15T15:21:51;7.30;99.90
10660;DHT22;5378;53.206;13.316;2022-11-15T15:24:38;7.30;99.90
10660;DHT22;5378;53.206;13.316;2022-11-15T15:27:25;7.20;99.90
10660;DHT22;5378;53.206;13.316;2022-11-15T15:30:12;7.10;99.90
10660;DHT22;5378;53.206;13.316;2022-11-15T15:33:00;7.00;99.90
10660;DHT22;5378;53.206;13.316;2022-11-15T15:35:47;7.00;99.90
10660;DHT22;5378;53.206;13.316;2022-11-15T15:38:35;7.00;99.90
10660;DHT22;5378;53.206;13.316;2022-11-15T15:41:23;6.90;99.90
10660;DHT22;5378;53.206;13.316;2022-11-15T15:44:10;7.00;99.90
10660;DHT22;5378;53.206;13.316;2022-11-15T15:46:57;7.10;99.90
10660;DHT22;5378;53.206;13.316;2022-11-15T15:49:44;7.10;99.90
10660;DHT22;5378;53.206;13.316;2022-11-15T15:52:31;7.00;99.90
10660;DHT22;5378;53.206;13.316;2022-11-15T15:55:20;6.90;99.90
10660;DHT22;5378;53.206;13.316;2022-11-15T15:58:07;6.80;99.90
10660;DHT22;5378;53.206;13.316;2022-11-15T16:00:54;6.80;99.90
10660;DHT22;5378;53.206;13.316;2022-11-15T16:03:41;6.90;99.90
10660;DHT22;5378;53.206;13.316;2022-11-15T16:06:36;6.80;99.90
10660;DHT22;5378;53.206;13.316;2022-11-15T16:09:24;6.70;99.90
10660;DHT22;5378;53.206;13.316;2022-11-15T16:12:26;6.70;99.90
10660;DHT22;5378;53.206;13.316;2022-11-15T16:15:13;6.50;99.90
10660;DHT22;5378;53.206;13.316;2022-11-15T16:18:01;6.50;99.90
10660;DHT22;5378;53.206;13.316;2022-11-15T16:20:49;6.30;99.90
10660;DHT22;5378;53.206;13.316;2022-11-15T16:23:37;6.30;99.90
10660;DHT22;5378;53.206;13.316;2022-11-15T16:26:26;6.30;99.90
10660;DHT22;5378;53.206;13.316;2022-11-15T16:29:15;6.30;99.90
10660;DHT22;5378;53.206;13.316;2022-11-15T16:32:02;6.30;99.90
10660;DHT22;5378;53.206;13.316;2022-11-15T16:34:48;6.20;99.90
10660;DHT22;5378;53.206;13.316;2022-11-15T16:37:36;6.20;99.90
10660;DHT22;5378;53.206;13.316;2022-11-15T16:40:26;6.30;99.90
10660;DHT22;5378;53.206;13.316;2022-11-15T16:43:14;6.30;99.90
10660;DHT22;5378;53.206;13.316;2022-11-15T16:46:08;6.30;99.90
10660;DHT22;5378;53.206;13.316;2022-11-15T16:48:58;6.30;99.90
10660;DHT22;5378;53.206;13.316;2022-11-15T16:51:46;6.00;99.90
10660;DHT22;5378;53.206;13.316;2022-11-15T16:54:33;6.50;99.90
10660;DHT22;5378;53.206;13.316;2022-11-15T16:57:19;6.50;99.90
10660;DHT22;5378;53.206;13.316;2022-11-15T17:00:09;6.50;99.90
10660;DHT22;5378;53.206;13.316;2022-11-15T17:02:58;6.50;99.90
10660;DHT22;5378;53.206;13.316;2022-11-15T17:05:45;6.50;99.90
10660;DHT22;5378;53.206;13.316;2022-11-15T17:08:32;6.40;99.90
10660;DHT22;5378;53.206;13.316;2022-11-15T17:11:21;6.40;99.90
10660;DHT22;5378;53.206;13.316;2022-11-15T17:14:08;6.30;99.90
10660;DHT22;5378;53.206;13.316;2022-11-15T17:16:56;6.40;99.90
10660;DHT22;5378;53.206;13.316;2022-11-15T17:19:44;6.40;99.90
10660;DHT22;5378;53.206;13.316;2022-11-15T17:22:31;6.50;99.90
10660;DHT22;5378;53.206;13.316;2022-11-15T17:25:18;6.40;99.90
10660;DHT22;5378;53.206;13.316;2022-11-15T17:28:05;6.30;99.90
10660;DHT22;5378;53.206;13.316;2022-11-15T17:30:52;6.20;99.90
10660;DHT22;5378;53.206;13.316;2022-11-15T17:33:40;6.40;99.90
10660;DHT22;5378;53.206;13.316;2022-11-15T17:36:28;6.00;99.90
10660;DHT22;5378;53.206;13.316;2022-11-15T17:39:15;6.10;99.90
10660;DHT22;5378;53.206;13.316;2022-11-15T17:42:03;6.10;99.90
10660;DHT22;5378;53.206;13.316;2022-11-15T17:44:50;6.20;99.90
10660;DHT22;5378;53.206;13.316;2022-11-15T17:47:37;6.30;99.90
10660;DHT22;5378;53.206;13.316;2022-11-15T17:50:24;6.30;99.90
10660;DHT22;5378;53.206;13.316;2022-11-15T17:53:13;6.30;99.90
10660;DHT22;5378;53.206;13.316;2022-11-15T17:56:01;6.30;99.90
10660;DHT22;5378;53.206;13.316;2022-11-15T17:58:49;6.40;99.90
10660;DHT22;5378;53.206;13.316;2022-11-15T18:01:37;6.20;99.90
10660;DHT22;5378;53.206;13.316;2022-11-15T18:04:24;6.30;99.90
10660;DHT22;5378;53.206;13.316;2022-11-15T18:07:12;6.30;99.90
10660;DHT22;5378;53.206;13.316;2022-11-15T18:10:01;6.30;99.90
10660;DHT22;5378;53.206;13.316;2022-11-15T18:12:48;6.40;99.90
10660;DHT22;5378;53.206;13.316;2022-11-15T18:15:35;6.50;99.90
10660;DHT22;5378;53.206;13.316;2022-11-15T18:18:22;6.60;99.90
10660;DHT22;5378;53.206;13.316;2022-11-15T18:21:11;6.70;99.90
10660;DHT22;5378;53.206;13.316;2022-11-15T18:23:59;6.70;99.90
10660;DHT22;5378;53.206;13.316;2022-11-15T18:26:48;6.70;99.90
10660;DHT22;5378;53.206;13.316;2022-11-15T18:29:36;6.70;99.90
10660;DHT22;5378;53.206;13.316;2022-11-15T18:32:24;6.80;99.90
10660;DHT22;5378;53.206;13.316;2022-11-15T18:35:11;6.80;99.90
10660;DHT22;5378;53.206;13.316;2022-11-15T18:37:58;6.90;99.90
10660;DHT22;5378;53.206;13.316;2022-11-15T18:40:45;7.00;99.90
10660;DHT22;5378;53.206;13.316;2022-11-15T18:43:34;6.90;99.90
10660;DHT22;5378;53.206;13.316;2022-11-15T18:46:23;6.90;99.90
10660;DHT22;5378;53.206;13.316;2022-11-15T18:49:12;6.90;99.90
10660;DHT22;5378;53.206;13.316;2022-11-15T18:51:59;6.90;99.90
10660;DHT22;5378;53.206;13.316;2022-11-15T18:54:46;7.00;99.90
10660;DHT22;5378;53.206;13.316;2022-11-15T18:57:33;7.00;99.90
10660;DHT22;5378;53.206;13.316;2022-11-15T19:00:22;7.00;99.90
10660;DHT22;5378;53.206;13.316;2022-11-15T19:03:09;7.00;99.90
10660;DHT22;5378;53.206;13.316;2022-11-15T19:06:00;7.10;99.90
10660;DHT22;5378;53.206;13.316;2022-11-15T19:08:50;7.00;99.90
10660;DHT22;5378;53.206;13.316;2022-11-15T19:11:38;6.90;99.90
10660;DHT22;5378;53.206;13.316;2022-11-15T19:14:25;6.70;99.90
10660;DHT22;5378;53.206;13.316;2022-11-15T19:17:14;6.80;99.90